createdAt,value
2019-03-30T00:02:10.987Z,100.00
2019-03-30T00:04:49.579Z,100.00
2019-03-30T00:07:44.746Z,100.00
2019-03-30T00:10:29.380Z,100.00
2019-03-30T00:13:03.037Z,100.00
2019-03-30T00:15:34.931Z,100.00
2019-03-30T00:18:06.569Z,100.00
2019-03-30T00:20:38.014Z,100.00
2019-03-30T00:23:10.069Z,100.00
2019-03-30T00:25:41.932Z,100.00
2019-03-30T00:28:13.403Z,100.00
2019-03-30T00:30:45.123Z,100.00
2019-03-30T00:33:17.001Z,100.00
2019-03-30T00:35:48.709Z,100.00
2019-03-30T00:38:20.076Z,100.00
2019-03-30T00:40:51.526Z,100.00
2019-03-30T00:43:23.041Z,100.00
2019-03-30T00:45:54.536Z,100.00
2019-03-30T00:48:26.583Z,100.00
2019-03-30T00:50:58.181Z,100.00
2019-03-30T00:53:29.602Z,100.00
2019-03-30T00:56:01.003Z,100.00
2019-03-30T00:58:32.348Z,100.00
2019-03-30T01:01:04.506Z,100.00
2019-03-30T01:03:35.828Z,100.00
2019-03-30T01:06:07.248Z,100.00
2019-03-30T01:08:39.351Z,100.00
2019-03-30T01:11:10.711Z,100.00
2019-03-30T01:13:42.122Z,100.00
2019-03-30T01:16:13.494Z,100.00
2019-03-30T01:18:44.872Z,100.00
2019-03-30T01:21:17.017Z,100.00
2019-03-30T01:23:48.737Z,100.00
2019-03-30T01:26:20.319Z,100.00
2019-03-30T01:28:54.804Z,100.00
2019-03-30T01:31:26.357Z,100.00
2019-03-30T01:33:57.748Z,100.00
2019-03-30T01:36:30.571Z,100.00
2019-03-30T01:39:04.790Z,100.00
2019-03-30T01:41:36.083Z,100.00
2019-03-30T01:44:07.811Z,100.00
2019-03-30T01:46:42.189Z,100.00
2019-03-30T01:49:13.570Z,100.00
2019-03-30T01:51:45.415Z,100.00
2019-03-30T01:54:16.745Z,100.00
2019-03-30T01:56:48.163Z,100.00
2019-03-30T01:59:19.890Z,100.00
2019-03-30T02:01:51.265Z,100.00
2019-03-30T02:04:23.284Z,100.00
2019-03-30T02:06:54.619Z,100.00
2019-03-30T02:09:26.031Z,100.00
2019-03-30T02:11:57.789Z,100.00
2019-03-30T02:14:32.450Z,100.00
2019-03-30T02:17:03.842Z,100.00
2019-03-30T02:19:35.730Z,100.00
2019-03-30T02:22:07.065Z,100.00
2019-03-30T02:24:38.480Z,100.00
2019-03-30T02:27:10.348Z,100.00
2019-03-30T02:29:41.716Z,100.00
2019-03-30T02:32:13.163Z,100.00
2019-03-30T02:34:44.543Z,100.00
2019-03-30T02:37:19.204Z,100.00
2019-03-30T02:39:50.721Z,100.00
2019-03-30T02:42:22.685Z,100.00
2019-03-30T02:44:54.322Z,100.00
2019-03-30T02:47:25.789Z,100.00
2019-03-30T02:49:57.688Z,100.00
2019-03-30T02:52:29.134Z,100.00
2019-03-30T02:55:00.711Z,100.00
2019-03-30T02:57:32.880Z,100.00
2019-03-30T03:00:05.915Z,100.00
2019-03-30T03:02:37.599Z,100.00
2019-03-30T03:05:09.584Z,100.00
2019-03-30T03:07:41.358Z,100.00
2019-03-30T03:10:14.029Z,100.00
2019-03-30T03:12:45.959Z,100.00
2019-03-30T03:15:17.368Z,100.00
2019-03-30T03:17:48.768Z,100.00
2019-03-30T03:20:20.253Z,100.00
2019-03-30T03:22:51.755Z,100.00
2019-03-30T03:25:23.183Z,100.00
2019-03-30T03:27:55.067Z,100.00
2019-03-30T03:30:26.475Z,100.00
2019-03-30T03:32:58.037Z,100.00
2019-03-30T03:35:30.028Z,100.00
2019-03-30T03:38:01.387Z,100.00
2019-03-30T03:40:32.874Z,100.00
2019-03-30T03:43:04.306Z,100.00
2019-03-30T03:45:36.832Z,100.00
2019-03-30T03:48:08.773Z,100.00
2019-03-30T03:50:45.019Z,100.00
2019-03-30T03:53:16.972Z,100.00
2019-03-30T03:55:48.773Z,100.00
2019-03-30T03:58:20.186Z,100.00
2019-03-30T04:00:51.670Z,100.00
2019-03-30T04:03:23.477Z,100.00
2019-03-30T04:05:56.381Z,100.00
2019-03-30T04:08:27.782Z,100.00
2019-03-30T04:10:59.239Z,100.00
2019-03-30T04:13:33.834Z,100.00
2019-03-30T04:16:06.531Z,100.00
2019-03-30T04:18:39.380Z,100.00
2019-03-30T04:21:12.287Z,100.00
2019-03-30T04:23:43.769Z,100.00
2019-03-30T04:26:15.203Z,100.00
2019-03-30T04:28:46.684Z,100.00
2019-03-30T04:31:18.190Z,100.00
2019-03-30T04:33:52.096Z,100.00
2019-03-30T04:36:25.121Z,100.00
2019-03-30T04:38:56.575Z,100.00
2019-03-30T04:41:28.443Z,100.00
2019-03-30T04:43:59.877Z,100.00
2019-03-30T04:46:31.529Z,100.00
2019-03-30T04:49:02.986Z,100.00
2019-03-30T04:51:34.859Z,100.00
2019-03-30T04:54:06.326Z,100.00
2019-03-30T04:56:37.880Z,100.00
2019-03-30T04:59:09.393Z,100.00
2019-03-30T05:01:41.231Z,100.00
2019-03-30T05:04:12.655Z,100.00
2019-03-30T05:06:44.722Z,100.00
2019-03-30T05:09:16.021Z,100.00
2019-03-30T05:11:47.501Z,100.00
2019-03-30T05:14:18.924Z,100.00
2019-03-30T05:16:50.415Z,100.00
2019-03-30T05:19:21.793Z,100.00
2019-03-30T05:21:53.663Z,100.00
2019-03-30T05:24:27.212Z,100.00
2019-03-30T05:26:58.155Z,100.00
2019-03-30T05:29:29.547Z,100.00
2019-03-30T05:32:01.313Z,100.00
2019-03-30T05:34:32.684Z,100.00
2019-03-30T05:37:04.316Z,100.00
2019-03-30T05:39:39.263Z,100.00
2019-03-30T05:42:15.699Z,100.00
2019-03-30T05:44:47.037Z,100.00
2019-03-30T05:47:18.743Z,100.00
2019-03-30T05:49:51.033Z,100.00
2019-03-30T05:52:29.575Z,100.00
2019-03-30T05:55:08.610Z,100.00
2019-03-30T05:57:41.647Z,100.00
2019-03-30T06:00:19.044Z,100.00
2019-03-30T06:02:50.548Z,100.00
2019-03-30T06:05:22.784Z,100.00
2019-03-30T06:07:54.318Z,100.00
2019-03-30T06:10:25.726Z,100.00
2019-03-30T06:12:57.995Z,100.00
2019-03-30T06:15:29.708Z,100.00
2019-03-30T06:18:03.509Z,100.00
2019-03-30T06:20:39.607Z,100.00
2019-03-30T06:23:15.261Z,100.00
2019-03-30T06:25:58.644Z,100.00
2019-03-30T06:28:30.049Z,100.00
2019-03-30T06:31:02.311Z,100.00
2019-03-30T06:33:35.593Z,100.00
2019-03-30T06:36:06.985Z,100.00
2019-03-30T06:38:39.177Z,100.00
2019-03-30T06:41:11.226Z,100.00
2019-03-30T06:43:42.649Z,100.00
2019-03-30T06:46:17.276Z,100.00
2019-03-30T06:48:48.857Z,100.00
2019-03-30T06:51:20.843Z,100.00
2019-03-30T06:53:52.451Z,100.00
2019-03-30T06:56:23.914Z,100.00
2019-03-30T06:59:52.172Z,100.00
2019-03-30T07:02:54.029Z,100.00
2019-03-30T07:05:42.547Z,100.00
2019-03-30T07:08:16.896Z,100.00
2019-03-30T07:10:48.274Z,100.00
2019-03-30T07:13:22.326Z,100.00
2019-03-30T07:15:53.727Z,100.00
2019-03-30T07:18:25.382Z,97.13
2019-03-30T07:20:57.074Z,100.00
2019-03-30T07:23:28.674Z,94.46
2019-03-30T07:26:01.433Z,93.80
2019-03-30T07:28:33.083Z,91.95
2019-03-30T07:31:05.416Z,85.66
2019-03-30T07:33:37.083Z,86.59
2019-03-30T07:36:08.789Z,79.32
2019-03-30T07:38:41.079Z,80.10
2019-03-30T07:41:12.414Z,79.72
2019-03-30T07:43:43.881Z,80.48
2019-03-30T07:46:15.762Z,73.56
2019-03-30T07:48:47.647Z,75.48
2019-03-30T07:51:20.633Z,74.79
2019-03-30T07:53:52.274Z,76.08
2019-03-30T07:56:24.238Z,72.42
2019-03-30T07:58:55.658Z,75.80
2019-03-30T08:01:27.156Z,73.66
2019-03-30T08:04:07.965Z,70.28
2019-03-30T08:06:39.387Z,69.82
2019-03-30T08:09:13.321Z,69.96
2019-03-30T08:11:49.957Z,73.91
2019-03-30T08:14:26.052Z,70.98
2019-03-30T08:16:57.499Z,68.25
2019-03-30T08:19:29.065Z,69.31
2019-03-30T08:22:03.070Z,68.92
2019-03-30T08:24:35.626Z,67.12
2019-03-30T08:27:07.010Z,68.40
2019-03-30T08:29:39.748Z,67.67
2019-03-30T08:32:14.635Z,69.40
2019-03-30T08:34:50.458Z,68.60
2019-03-30T08:37:26.922Z,67.21
2019-03-30T08:39:58.574Z,66.93
2019-03-30T08:42:29.911Z,68.50
2019-03-30T08:45:01.407Z,67.47
2019-03-30T08:47:41.555Z,66.71
2019-03-30T08:50:19.600Z,67.57
2019-03-30T08:52:50.968Z,63.03
2019-03-30T08:55:23.834Z,63.22
2019-03-30T08:57:55.914Z,65.14
2019-03-30T09:00:41.711Z,64.35
2019-03-30T09:03:14.703Z,64.40
2019-03-30T09:05:50.987Z,63.15
2019-03-30T09:08:34.663Z,63.81
2019-03-30T09:11:08.252Z,61.09
2019-03-30T09:13:41.431Z,59.75
2019-03-30T09:16:12.830Z,61.77
2019-03-30T09:18:46.438Z,58.92
2019-03-30T09:21:20.781Z,56.91
2019-03-30T09:23:53.351Z,58.42
2019-03-30T09:26:26.561Z,58.23
2019-03-30T09:28:57.953Z,57.54
2019-03-30T09:31:32.426Z,55.44
2019-03-30T09:34:52.917Z,56.54
2019-03-30T09:37:28.652Z,55.60
2019-03-30T09:40:04.938Z,55.41
2019-03-30T09:42:39.050Z,53.42
2019-03-30T09:45:10.978Z,55.07
2019-03-30T09:47:43.573Z,54.73
2019-03-30T09:50:15.938Z,54.45
2019-03-30T09:52:48.487Z,52.70
2019-03-30T09:55:22.480Z,49.79
2019-03-30T09:58:30.928Z,52.92
2019-03-30T10:01:25.004Z,52.29
2019-03-30T10:03:59.007Z,48.45
2019-03-30T10:06:34.309Z,51.04
2019-03-30T10:09:08.500Z,49.36
2019-03-30T10:12:14.714Z,44.78
2019-03-30T10:15:07.080Z,49.45
2019-03-30T10:17:42.261Z,48.67
2019-03-30T10:20:18.591Z,44.77
2019-03-30T10:22:52.940Z,44.56
2019-03-30T10:25:25.470Z,43.59
2019-03-30T10:27:59.816Z,43.62
2019-03-30T10:30:31.196Z,44.82
2019-03-30T10:33:04.388Z,41.98
2019-03-30T10:35:41.611Z,43.53
2019-03-30T10:38:13.258Z,44.95
2019-03-30T10:40:44.904Z,44.04
2019-03-30T10:43:22.052Z,43.87
2019-03-30T10:46:03.721Z,44.22
2019-03-30T10:48:35.555Z,42.24
2019-03-30T10:51:13.047Z,40.82
2019-03-30T10:53:44.437Z,42.68
2019-03-30T10:56:16.051Z,44.50
2019-03-30T10:58:51.955Z,44.24
2019-03-30T11:01:23.231Z,41.40
2019-03-30T11:03:57.220Z,42.19
2019-03-30T11:06:38.942Z,40.72
2019-03-30T11:09:10.645Z,42.10
2019-03-30T11:11:53.110Z,44.11
2019-03-30T11:14:26.123Z,41.66
2019-03-30T11:17:09.988Z,40.35
2019-03-30T11:19:50.771Z,40.82
2019-03-30T11:22:19.437Z,39.56
2019-03-30T11:25:06.519Z,39.16
2019-03-30T11:27:27.011Z,39.23
2019-03-30T11:29:58.855Z,40.77
2019-03-30T11:32:31.736Z,41.14
2019-03-30T11:35:03.274Z,41.24
2019-03-30T11:37:34.673Z,40.08
2019-03-30T11:40:07.199Z,39.31
2019-03-30T11:42:42.037Z,40.90
2019-03-30T11:45:20.004Z,41.59
2019-03-30T11:47:53.034Z,42.19
2019-03-30T11:50:26.000Z,43.29
2019-03-30T11:52:57.449Z,41.44
2019-03-30T11:55:33.557Z,42.19
2019-03-30T11:58:04.934Z,38.76
2019-03-30T12:00:39.295Z,41.26
2019-03-30T12:03:16.376Z,40.91
2019-03-30T12:05:52.365Z,42.95
2019-03-30T12:08:23.753Z,41.92
2019-03-30T12:10:55.528Z,41.38
2019-03-30T12:13:37.857Z,42.97
2019-03-30T12:16:23.805Z,42.27
2019-03-30T12:19:01.838Z,42.17
2019-03-30T12:21:33.136Z,42.21
2019-03-30T12:24:08.222Z,42.17
2019-03-30T12:26:40.026Z,43.72
2019-03-30T12:29:12.672Z,40.58
2019-03-30T12:31:43.970Z,40.78
2019-03-30T12:34:15.423Z,41.14
2019-03-30T12:36:48.619Z,42.40
2019-03-30T12:39:32.039Z,43.41
2019-03-30T12:42:07.290Z,43.22
2019-03-30T12:44:39.543Z,43.41
2019-03-30T12:47:25.978Z,43.98
2019-03-30T12:50:00.644Z,43.71
2019-03-30T12:52:32.531Z,44.56
2019-03-30T12:55:04.535Z,45.48
2019-03-30T12:57:46.350Z,44.46
2019-03-30T13:00:19.654Z,45.08
2019-03-30T13:02:51.036Z,44.92
2019-03-30T13:05:22.888Z,45.19
2019-03-30T13:07:55.575Z,44.58
2019-03-30T13:10:26.905Z,44.73
2019-03-30T13:12:58.394Z,44.55
2019-03-30T13:15:32.295Z,44.25
2019-03-30T13:18:11.061Z,43.66
2019-03-30T13:20:44.360Z,44.21
2019-03-30T13:23:15.735Z,45.26
2019-03-30T13:25:47.033Z,45.22
2019-03-30T13:28:20.963Z,45.89
2019-03-30T13:30:53.422Z,46.01
2019-03-30T13:33:25.451Z,46.20
2019-03-30T13:36:15.947Z,44.98
2019-03-30T13:38:49.865Z,44.75
2019-03-30T13:41:24.182Z,42.73
2019-03-30T13:43:57.486Z,44.99
2019-03-30T13:47:00.477Z,43.07
2019-03-30T13:49:35.322Z,43.69
2019-03-30T13:52:10.911Z,43.38
2019-03-30T13:54:43.927Z,42.91
2019-03-30T13:57:15.245Z,42.35
2019-03-30T13:59:50.996Z,41.93
2019-03-30T14:02:25.347Z,42.75
2019-03-30T14:04:57.103Z,42.55
2019-03-30T14:07:34.409Z,41.03
2019-03-30T14:10:06.293Z,40.12
2019-03-30T14:12:39.221Z,39.33
2019-03-30T14:15:16.647Z,41.00
2019-03-30T14:17:48.013Z,40.68
2019-03-30T14:20:19.383Z,39.93
2019-03-30T14:22:51.147Z,41.59
2019-03-30T14:25:23.089Z,40.49
2019-03-30T14:28:03.581Z,40.33
2019-03-30T14:30:36.792Z,39.96
2019-03-30T14:33:08.554Z,40.13
2019-03-30T14:35:44.580Z,41.03
2019-03-30T14:38:16.212Z,40.80
2019-03-30T14:40:58.595Z,41.11
2019-03-30T14:43:34.866Z,41.54
2019-03-30T14:46:10.510Z,41.32
2019-03-30T14:48:43.528Z,40.78
2019-03-30T14:51:19.451Z,40.46
2019-03-30T14:53:51.223Z,39.81
2019-03-30T14:56:27.482Z,39.15
2019-03-30T14:59:41.098Z,41.91
2019-03-30T15:02:13.122Z,40.38
2019-03-30T15:04:45.314Z,39.04
2019-03-30T15:07:20.594Z,39.69
2019-03-30T15:09:51.899Z,39.22
2019-03-30T15:12:23.756Z,38.51
2019-03-30T15:14:55.130Z,38.98
2019-03-30T15:17:26.851Z,37.56
2019-03-30T15:20:02.463Z,38.36
2019-03-30T15:22:42.097Z,38.66
2019-03-30T15:25:17.811Z,40.64
2019-03-30T15:27:54.102Z,39.42
2019-03-30T15:30:25.706Z,39.25
2019-03-30T15:32:57.344Z,39.12
2019-03-30T15:35:30.460Z,39.65
2019-03-30T15:38:04.697Z,39.67
2019-03-30T15:40:46.085Z,40.65
2019-03-30T15:43:18.651Z,40.45
2019-03-30T15:45:57.145Z,41.28
2019-03-30T15:48:28.610Z,41.57
2019-03-30T15:50:59.968Z,41.21
2019-03-30T15:53:31.319Z,42.16
2019-03-30T15:56:17.319Z,42.86
2019-03-30T15:58:49.080Z,42.16
2019-03-30T16:01:20.428Z,43.95
2019-03-30T16:03:52.055Z,46.17
2019-03-30T16:06:26.463Z,47.69
2019-03-30T16:08:57.846Z,48.43
2019-03-30T16:11:29.695Z,47.47
2019-03-30T16:14:01.333Z,45.98
2019-03-30T16:17:15.034Z,46.41
2019-03-30T16:20:22.597Z,48.27
2019-03-30T16:23:03.418Z,50.46
2019-03-30T16:26:18.623Z,51.94
2019-03-30T16:29:39.019Z,51.88
2019-03-30T16:32:18.157Z,52.63
2019-03-30T16:37:32.077Z,55.82
2019-03-30T16:40:04.843Z,57.01
2019-03-30T16:42:37.953Z,57.63
2019-03-30T16:45:12.315Z,59.29
2019-03-30T16:47:43.705Z,60.40
2019-03-30T16:50:15.533Z,60.40
2019-03-30T16:52:58.072Z,61.58
2019-03-30T16:55:30.343Z,61.82
2019-03-30T16:58:04.799Z,61.33
2019-03-30T17:00:55.334Z,62.78
2019-03-30T17:03:16.774Z,64.10
2019-03-30T17:05:56.024Z,64.22
2019-03-30T17:08:31.522Z,65.89
2019-03-30T17:11:03.106Z,65.75
2019-03-30T17:13:34.474Z,66.61
2019-03-30T17:16:06.527Z,66.53
2019-03-30T17:18:38.205Z,66.89
2019-03-30T17:21:38.338Z,68.58
2019-03-30T17:24:16.205Z,68.69
2019-03-30T17:26:53.273Z,68.91
2019-03-30T17:29:27.856Z,67.95
2019-03-30T17:33:01.039Z,68.85
2019-03-30T17:39:08.390Z,69.60
2019-03-30T17:41:41.887Z,71.48
2019-03-30T17:44:13.412Z,69.95
2019-03-30T17:46:46.373Z,71.70
2019-03-30T17:49:17.971Z,71.77
2019-03-30T17:51:49.769Z,72.64
2019-03-30T17:54:23.568Z,72.89
2019-03-30T17:56:55.384Z,73.83
2019-03-30T17:59:33.319Z,73.93
2019-03-30T18:02:09.204Z,74.30
2019-03-30T18:04:55.553Z,75.34
2019-03-30T18:07:27.497Z,74.01
2019-03-30T18:09:59.289Z,74.04
2019-03-30T18:12:36.837Z,73.92
2019-03-30T18:15:10.674Z,74.91
2019-03-30T18:17:42.069Z,74.98
2019-03-30T18:20:20.000Z,74.84
2019-03-30T18:22:51.447Z,74.56
2019-03-30T18:25:27.306Z,75.87
2019-03-30T18:28:04.147Z,76.84
2019-03-30T18:30:41.465Z,76.97
2019-03-30T18:33:24.563Z,76.51
2019-03-30T18:35:56.422Z,76.14
2019-03-30T18:38:28.320Z,74.24
2019-03-30T18:41:03.362Z,76.03
2019-03-30T18:43:40.552Z,75.01
2019-03-30T18:46:20.968Z,75.29
2019-03-30T18:48:54.897Z,75.52
2019-03-30T18:51:28.503Z,75.81
2019-03-30T18:54:00.013Z,76.01
2019-03-30T18:56:36.987Z,75.30
2019-03-30T18:59:12.448Z,75.28
2019-03-30T19:01:47.273Z,75.18
2019-03-30T19:04:19.325Z,74.81
2019-03-30T19:06:52.722Z,75.24
2019-03-30T19:09:26.214Z,74.65
2019-03-30T19:11:57.987Z,75.58
2019-03-30T19:14:34.791Z,75.77
2019-03-30T19:17:10.754Z,75.63
2019-03-30T19:19:50.219Z,75.81
2019-03-30T19:22:25.252Z,76.34
2019-03-30T19:24:56.599Z,77.27
2019-03-30T19:27:30.234Z,77.92
2019-03-30T19:30:02.009Z,78.55
2019-03-30T19:32:39.798Z,79.49
2019-03-30T19:35:14.616Z,79.29
2019-03-30T19:37:47.543Z,79.73
2019-03-30T19:40:23.619Z,79.22
2019-03-30T19:42:57.741Z,79.41
2019-03-30T19:45:39.440Z,79.38
2019-03-30T19:48:15.865Z,80.69
2019-03-30T19:50:47.829Z,80.82
2019-03-30T19:53:19.511Z,81.38
2019-03-30T19:55:52.156Z,81.33
2019-03-30T19:58:30.912Z,81.34
2019-03-30T20:01:02.390Z,81.60
2019-03-30T20:03:40.313Z,81.55
2019-03-30T20:06:16.963Z,81.20
2019-03-30T20:08:48.462Z,81.90
2019-03-30T20:11:24.243Z,82.26
2019-03-30T20:13:58.632Z,81.76
2019-03-30T20:16:33.174Z,81.83
2019-03-30T20:19:11.894Z,82.94
2019-03-30T20:21:38.922Z,83.06
2019-03-30T20:24:10.552Z,82.24
2019-03-30T20:26:42.179Z,82.67
2019-03-30T20:29:25.094Z,83.74
2019-03-30T20:31:48.182Z,83.08
2019-03-30T20:34:19.582Z,83.69
2019-03-30T20:36:51.623Z,82.84
2019-03-30T20:39:35.756Z,83.69
2019-03-30T20:42:07.233Z,84.33
2019-03-30T20:44:42.877Z,84.49
2019-03-30T20:47:14.587Z,85.45
2019-03-30T20:49:46.583Z,83.93
2019-03-30T20:52:24.414Z,85.92
2019-03-30T20:54:55.765Z,85.90
2019-03-30T20:57:28.038Z,85.12
2019-03-30T21:00:00.758Z,85.53
2019-03-30T21:02:33.853Z,85.84
2019-03-30T21:05:07.331Z,84.56
2019-03-30T21:07:41.719Z,84.27
2019-03-30T21:10:15.586Z,85.68
2019-03-30T21:12:54.648Z,86.57
2019-03-30T21:15:26.213Z,85.78
2019-03-30T21:18:01.601Z,85.07
2019-03-30T21:20:33.605Z,85.77
2019-03-30T21:23:16.939Z,86.11
2019-03-30T21:25:59.135Z,86.35
2019-03-30T21:28:30.842Z,87.04
2019-03-30T21:31:04.037Z,86.69
2019-03-30T21:33:35.297Z,86.83
2019-03-30T21:36:16.925Z,87.78
2019-03-30T21:38:48.173Z,87.52
2019-03-30T21:41:19.881Z,87.15
2019-03-30T21:43:51.278Z,87.28
2019-03-30T21:46:22.504Z,88.38
2019-03-30T21:48:53.857Z,87.96
2019-03-30T21:51:25.139Z,87.82
2019-03-30T21:53:57.104Z,87.60
2019-03-30T21:56:28.821Z,88.84
2019-03-30T21:59:00.516Z,89.80
2019-03-30T22:01:34.805Z,89.79
2019-03-30T22:04:07.240Z,90.14
2019-03-30T22:06:40.167Z,91.09
2019-03-30T22:09:19.046Z,91.13
2019-03-30T22:11:51.331Z,90.61
2019-03-30T22:14:22.525Z,90.54
2019-03-30T22:16:53.660Z,90.83
2019-03-30T22:19:24.910Z,91.83
2019-03-30T22:22:09.937Z,91.38
2019-03-30T22:24:43.435Z,92.09
2019-03-30T22:27:14.621Z,92.12
2019-03-30T22:29:55.934Z,91.53
2019-03-30T22:32:27.587Z,91.71
2019-03-30T22:34:59.219Z,91.25
2019-03-30T22:37:30.534Z,90.21
2019-03-30T22:40:02.424Z,91.24
2019-03-30T22:42:39.299Z,90.72
2019-03-30T22:45:16.496Z,89.92
2019-03-30T22:48:15.869Z,90.45
2019-03-30T22:50:58.258Z,90.21
2019-03-30T22:53:38.005Z,90.51
2019-03-30T22:56:09.380Z,90.70
2019-03-30T22:58:41.379Z,91.37
2019-03-30T23:01:15.982Z,91.89
2019-03-30T23:03:49.044Z,91.72
2019-03-30T23:06:22.403Z,91.33
2019-03-30T23:08:53.805Z,90.72
2019-03-30T23:11:26.232Z,90.72
2019-03-30T23:13:57.347Z,91.08
2019-03-30T23:16:34.657Z,92.11
2019-03-30T23:19:08.111Z,91.37
2019-03-30T23:21:54.937Z,90.99
2019-03-30T23:24:26.434Z,92.83
2019-03-30T23:26:59.723Z,92.75
2019-03-30T23:29:33.743Z,93.02
2019-03-30T23:32:08.464Z,92.98
2019-03-30T23:35:19.865Z,93.37
2019-03-30T23:37:58.804Z,93.20
2019-03-30T23:40:48.362Z,92.77
2019-03-30T23:43:21.608Z,92.80
2019-03-30T23:45:58.906Z,92.53
2019-03-30T23:48:35.694Z,92.63
2019-03-30T23:51:06.883Z,92.84
2019-03-30T23:53:39.849Z,92.66
2019-03-30T23:56:24.167Z,92.38
2019-03-30T23:58:59.387Z,93.06
